Red Chute, Louisiana
Current Conditions -  °F | °C
As of 7:58 PM on Saturday 25 Oct 2014 (Local Time) from KBAD Reporting Station
Clear Clear  
Wind Chill: 70°   Ceiling: Unl
Heat Index: 70°   Visibility: 10mi
Dew Point: 65°   Wind: 5mph
Humidity: 83%   Direction: 150°SSE
Pressure: 30.07"   Gusts: NA
Location:  32.5391°N, 93.5257°W
Report Text: KBAD 260058Z AUTO 15004KT 10SM CLR 21/18 A3007 RMK AO2 SLP185 T02110182
Loading
Personal Weather Stations






























Interactive Weather Map
Tropical Storm Tracking
New forecast layout! Learn more

10-Day Weather Forecast

Advertisements
Track Severe Weather on mobile